sensor_id;sensor_type;location;lat;lon;timestamp;P1;durP1;ratioP1;P2;durP2;ratioP2
68680;SDS011;55836;49.858;6.756;2023-08-06T00:00:11;6.73;;;4.00;;
68680;SDS011;55836;49.858;6.756;2023-08-06T00:02:37;7.93;;;4.00;;
68680;SDS011;55836;49.858;6.756;2023-08-06T00:05:03;8.60;;;3.63;;
68680;SDS011;55836;49.858;6.756;2023-08-06T00:07:29;6.77;;;3.63;;
68680;SDS011;55836;49.858;6.756;2023-08-06T00:09:55;6.27;;;3.77;;
68680;SDS011;55836;49.858;6.756;2023-08-06T00:12:21;6.80;;;3.33;;
68680;SDS011;55836;49.858;6.756;2023-08-06T00:14:50;6.97;;;3.90;;
68680;SDS011;55836;49.858;6.756;2023-08-06T00:17:17;6.33;;;3.67;;
68680;SDS011;55836;49.858;6.756;2023-08-06T00:19:43;4.70;;;3.67;;
68680;SDS011;55836;49.858;6.756;2023-08-06T00:22:09;6.43;;;3.50;;
68680;SDS011;55836;49.858;6.756;2023-08-06T00:24:35;9.67;;;4.13;;
68680;SDS011;55836;49.858;6.756;2023-08-06T00:27:01;4.77;;;3.77;;
68680;SDS011;55836;49.858;6.756;2023-08-06T00:29:27;5.97;;;3.83;;
68680;SDS011;55836;49.858;6.756;2023-08-06T00:31:53;7.93;;;4.10;;
68680;SDS011;55836;49.858;6.756;2023-08-06T00:34:20;3.80;;;3.23;;
68680;SDS011;55836;49.858;6.756;2023-08-06T00:36:46;4.00;;;3.53;;
68680;SDS011;55836;49.858;6.756;2023-08-06T00:39:12;6.73;;;3.80;;
68680;SDS011;55836;49.858;6.756;2023-08-06T00:41:38;5.93;;;3.70;;
68680;SDS011;55836;49.858;6.756;2023-08-06T00:44:04;6.43;;;3.63;;
68680;SDS011;55836;49.858;6.756;2023-08-06T00:46:31;6.37;;;3.10;;
68680;SDS011;55836;49.858;6.756;2023-08-06T00:48:58;4.80;;;4.30;;
68680;SDS011;55836;49.858;6.756;2023-08-06T00:51:24;4.87;;;3.63;;
68680;SDS011;55836;49.858;6.756;2023-08-06T00:53:50;6.83;;;3.47;;
68680;SDS011;55836;49.858;6.756;2023-08-06T00:56:17;9.00;;;3.40;;
68680;SDS011;55836;49.858;6.756;2023-08-06T00:58:43;5.30;;;3.57;;
68680;SDS011;55836;49.858;6.756;2023-08-06T01:01:10;7.27;;;4.00;;
68680;SDS011;55836;49.858;6.756;2023-08-06T01:03:36;6.10;;;3.80;;
68680;SDS011;55836;49.858;6.756;2023-08-06T01:06:02;6.10;;;3.80;;
68680;SDS011;55836;49.858;6.756;2023-08-06T01:08:30;6.20;;;3.83;;
68680;SDS011;55836;49.858;6.756;2023-08-06T01:11:14;8.20;;;4.27;;
68680;SDS011;55836;49.858;6.756;2023-08-06T01:13:46;5.87;;;3.73;;
68680;SDS011;55836;49.858;6.756;2023-08-06T01:16:17;7.23;;;3.73;;
68680;SDS011;55836;49.858;6.756;2023-08-06T01:18:43;6.60;;;4.07;;
68680;SDS011;55836;49.858;6.756;2023-08-06T01:21:14;6.13;;;4.13;;
68680;SDS011;55836;49.858;6.756;2023-08-06T01:23:44;8.60;;;3.77;;
68680;SDS011;55836;49.858;6.756;2023-08-06T01:26:22;9.77;;;4.43;;
68680;SDS011;55836;49.858;6.756;2023-08-06T01:31:37;8.17;;;3.70;;
68680;SDS011;55836;49.858;6.756;2023-08-06T01:34:09;9.03;;;4.33;;
68680;SDS011;55836;49.858;6.756;2023-08-06T01:36:35;5.67;;;3.73;;
68680;SDS011;55836;49.858;6.756;2023-08-06T01:39:01;6.60;;;4.03;;
68680;SDS011;55836;49.858;6.756;2023-08-06T01:41:27;7.33;;;3.83;;
68680;SDS011;55836;49.858;6.756;2023-08-06T01:43:54;8.73;;;4.20;;
68680;SDS011;55836;49.858;6.756;2023-08-06T01:46:20;6.80;;;3.77;;
68680;SDS011;55836;49.858;6.756;2023-08-06T01:48:46;5.60;;;3.37;;
68680;SDS011;55836;49.858;6.756;2023-08-06T01:51:12;6.43;;;3.63;;
68680;SDS011;55836;49.858;6.756;2023-08-06T01:53:38;6.57;;;3.27;;
68680;SDS011;55836;49.858;6.756;2023-08-06T01:56:04;7.27;;;2.93;;
68680;SDS011;55836;49.858;6.756;2023-08-06T01:58:30;7.13;;;2.30;;
68680;SDS011;55836;49.858;6.756;2023-08-06T02:00:56;8.57;;;3.00;;
68680;SDS011;55836;49.858;6.756;2023-08-06T02:03:22;5.77;;;2.40;;
68680;SDS011;55836;49.858;6.756;2023-08-06T02:05:48;3.97;;;2.30;;
68680;SDS011;55836;49.858;6.756;2023-08-06T02:08:14;4.10;;;2.10;;
68680;SDS011;55836;49.858;6.756;2023-08-06T02:10:40;5.40;;;2.40;;
68680;SDS011;55836;49.858;6.756;2023-08-06T02:13:06;4.93;;;2.03;;
68680;SDS011;55836;49.858;6.756;2023-08-06T02:15:32;3.80;;;1.77;;
68680;SDS011;55836;49.858;6.756;2023-08-06T02:17:58;7.43;;;2.03;;
68680;SDS011;55836;49.858;6.756;2023-08-06T02:20:24;6.43;;;2.07;;
68680;SDS011;55836;49.858;6.756;2023-08-06T02:22:50;4.03;;;1.60;;
68680;SDS011;55836;49.858;6.756;2023-08-06T02:25:16;4.13;;;1.77;;
68680;SDS011;55836;49.858;6.756;2023-08-06T02:27:43;5.83;;;1.90;;
68680;SDS011;55836;49.858;6.756;2023-08-06T02:30:09;2.40;;;1.60;;
68680;SDS011;55836;49.858;6.756;2023-08-06T02:32:35;2.93;;;1.60;;
68680;SDS011;55836;49.858;6.756;2023-08-06T02:35:01;6.20;;;1.50;;
68680;SDS011;55836;49.858;6.756;2023-08-06T02:37:27;4.30;;;1.53;;
68680;SDS011;55836;49.858;6.756;2023-08-06T02:39:53;1.67;;;1.23;;
68680;SDS011;55836;49.858;6.756;2023-08-06T02:42:19;2.47;;;1.23;;
68680;SDS011;55836;49.858;6.756;2023-08-06T02:44:45;3.07;;;1.37;;
68680;SDS011;55836;49.858;6.756;2023-08-06T02:47:11;3.23;;;1.20;;
68680;SDS011;55836;49.858;6.756;2023-08-06T02:49:37;3.77;;;1.20;;
68680;SDS011;55836;49.858;6.756;2023-08-06T02:52:03;4.70;;;1.40;;
68680;SDS011;55836;49.858;6.756;2023-08-06T02:54:30;5.27;;;1.33;;
68680;SDS011;55836;49.858;6.756;2023-08-06T02:56:56;3.30;;;1.27;;
68680;SDS011;55836;49.858;6.756;2023-08-06T02:59:22;5.33;;;1.23;;
68680;SDS011;55836;49.858;6.756;2023-08-06T03:01:48;5.10;;;1.20;;
68680;SDS011;55836;49.858;6.756;2023-08-06T03:04:14;3.80;;;1.43;;
68680;SDS011;55836;49.858;6.756;2023-08-06T03:06:40;3.43;;;1.40;;
68680;SDS011;55836;49.858;6.756;2023-08-06T03:09:06;1.83;;;1.03;;
68680;SDS011;55836;49.858;6.756;2023-08-06T03:11:32;2.33;;;1.03;;
68680;SDS011;55836;49.858;6.756;2023-08-06T03:13:58;1.83;;;1.30;;
68680;SDS011;55836;49.858;6.756;2023-08-06T03:16:24;1.87;;;1.23;;
68680;SDS011;55836;49.858;6.756;2023-08-06T03:18:50;2.50;;;1.23;;
68680;SDS011;55836;49.858;6.756;2023-08-06T03:21:16;2.87;;;1.40;;
68680;SDS011;55836;49.858;6.756;2023-08-06T03:23:42;1.20;;;1.00;;
68680;SDS011;55836;49.858;6.756;2023-08-06T03:26:10;1.90;;;1.30;;
68680;SDS011;55836;49.858;6.756;2023-08-06T03:28:36;2.53;;;1.40;;
68680;SDS011;55836;49.858;6.756;2023-08-06T03:31:03;2.83;;;1.23;;
68680;SDS011;55836;49.858;6.756;2023-08-06T03:33:29;1.27;;;1.17;;
68680;SDS011;55836;49.858;6.756;2023-08-06T03:35:55;1.33;;;1.17;;
68680;SDS011;55836;49.858;6.756;2023-08-06T03:38:21;4.50;;;1.20;;
68680;SDS011;55836;49.858;6.756;2023-08-06T03:40:48;2.33;;;1.57;;
68680;SDS011;55836;49.858;6.756;2023-08-06T03:43:14;2.50;;;1.13;;
68680;SDS011;55836;49.858;6.756;2023-08-06T03:45:40;2.37;;;1.20;;
68680;SDS011;55836;49.858;6.756;2023-08-06T03:48:06;2.40;;;1.20;;
68680;SDS011;55836;49.858;6.756;2023-08-06T03:50:32;1.63;;;1.00;;
68680;SDS011;55836;49.858;6.756;2023-08-06T03:52:58;4.37;;;1.00;;
68680;SDS011;55836;49.858;6.756;2023-08-06T03:55:24;1.80;;;1.13;;
68680;SDS011;55836;49.858;6.756;2023-08-06T03:57:50;3.30;;;1.10;;
68680;SDS011;55836;49.858;6.756;2023-08-06T04:00:16;2.03;;;1.00;;
68680;SDS011;55836;49.858;6.756;2023-08-06T04:02:42;3.73;;;1.50;;
68680;SDS011;55836;49.858;6.756;2023-08-06T04:05:08;2.13;;;1.40;;
68680;SDS011;55836;49.858;6.756;2023-08-06T04:07:35;3.40;;;1.73;;
68680;SDS011;55836;49.858;6.756;2023-08-06T04:10:01;2.17;;;1.20;;
68680;SDS011;55836;49.858;6.756;2023-08-06T04:12:28;2.93;;;1.60;;
68680;SDS011;55836;49.858;6.756;2023-08-06T04:14:55;4.80;;;1.40;;
68680;SDS011;55836;49.858;6.756;2023-08-06T04:17:21;4.63;;;1.33;;
68680;SDS011;55836;49.858;6.756;2023-08-06T04:19:49;3.10;;;1.60;;
68680;SDS011;55836;49.858;6.756;2023-08-06T04:22:15;3.50;;;1.37;;
68680;SDS011;55836;49.858;6.756;2023-08-06T04:24:41;3.50;;;1.83;;
68680;SDS011;55836;49.858;6.756;2023-08-06T04:27:10;3.40;;;1.50;;
68680;SDS011;55836;49.858;6.756;2023-08-06T04:29:37;4.03;;;1.60;;
68680;SDS011;55836;49.858;6.756;2023-08-06T04:32:03;2.53;;;1.63;;
68680;SDS011;55836;49.858;6.756;2023-08-06T04:34:30;3.40;;;1.93;;
68680;SDS011;55836;49.858;6.756;2023-08-06T04:36:56;2.27;;;1.83;;
68680;SDS011;55836;49.858;6.756;2023-08-06T04:39:22;8.00;;;2.00;;
68680;SDS011;55836;49.858;6.756;2023-08-06T04:41:48;3.07;;;1.60;;
68680;SDS011;55836;49.858;6.756;2023-08-06T04:44:14;1.90;;;1.60;;
68680;SDS011;55836;49.858;6.756;2023-08-06T04:46:42;1.90;;;1.63;;
68680;SDS011;55836;49.858;6.756;2023-08-06T04:49:08;3.50;;;1.60;;
68680;SDS011;55836;49.858;6.756;2023-08-06T04:51:35;3.20;;;1.80;;
68680;SDS011;55836;49.858;6.756;2023-08-06T04:54:01;2.93;;;1.90;;
68680;SDS011;55836;49.858;6.756;2023-08-06T04:56:27;5.50;;;2.00;;
68680;SDS011;55836;49.858;6.756;2023-08-06T04:58:53;5.13;;;1.93;;
68680;SDS011;55836;49.858;6.756;2023-08-06T05:01:19;5.03;;;2.17;;
68680;SDS011;55836;49.858;6.756;2023-08-06T05:03:46;5.00;;;1.70;;
68680;SDS011;55836;49.858;6.756;2023-08-06T05:06:12;5.03;;;2.00;;
68680;SDS011;55836;49.858;6.756;2023-08-06T05:08:38;3.43;;;2.20;;
68680;SDS011;55836;49.858;6.756;2023-08-06T05:11:04;5.03;;;2.40;;
68680;SDS011;55836;49.858;6.756;2023-08-06T05:13:30;3.50;;;2.00;;
68680;SDS011;55836;49.858;6.756;2023-08-06T05:15:56;4.57;;;2.30;;
68680;SDS011;55836;49.858;6.756;2023-08-06T05:18:22;4.43;;;2.20;;
68680;SDS011;55836;49.858;6.756;2023-08-06T05:20:48;3.17;;;2.13;;
68680;SDS011;55836;49.858;6.756;2023-08-06T05:23:14;4.40;;;2.00;;
68680;SDS011;55836;49.858;6.756;2023-08-06T05:25:40;4.70;;;2.50;;
68680;SDS011;55836;49.858;6.756;2023-08-06T05:28:06;4.80;;;2.30;;
68680;SDS011;55836;49.858;6.756;2023-08-06T05:30:32;2.97;;;2.17;;
68680;SDS011;55836;49.858;6.756;2023-08-06T05:32:58;4.50;;;2.27;;
68680;SDS011;55836;49.858;6.756;2023-08-06T05:35:24;2.70;;;2.00;;
68680;SDS011;55836;49.858;6.756;2023-08-06T05:37:50;3.37;;;2.07;;
68680;SDS011;55836;49.858;6.756;2023-08-06T05:40:16;2.90;;;1.90;;
68680;SDS011;55836;49.858;6.756;2023-08-06T05:42:42;3.43;;;1.80;;
68680;SDS011;55836;49.858;6.756;2023-08-06T05:45:08;4.57;;;3.30;;
68680;SDS011;55836;49.858;6.756;2023-08-06T05:47:35;5.27;;;3.70;;
68680;SDS011;55836;49.858;6.756;2023-08-06T05:50:01;3.30;;;2.03;;
68680;SDS011;55836;49.858;6.756;2023-08-06T05:52:27;2.10;;;1.60;;
68680;SDS011;55836;49.858;6.756;2023-08-06T05:54:53;2.83;;;2.00;;
68680;SDS011;55836;49.858;6.756;2023-08-06T05:57:20;2.93;;;1.80;;
68680;SDS011;55836;49.858;6.756;2023-08-06T05:59:46;3.50;;;1.50;;
68680;SDS011;55836;49.858;6.756;2023-08-06T06:02:12;4.30;;;1.80;;
68680;SDS011;55836;49.858;6.756;2023-08-06T06:04:38;3.20;;;1.50;;
68680;SDS011;55836;49.858;6.756;2023-08-06T06:07:04;4.37;;;1.60;;
68680;SDS011;55836;49.858;6.756;2023-08-06T06:09:30;1.70;;;1.60;;
68680;SDS011;55836;49.858;6.756;2023-08-06T06:11:56;1.53;;;1.40;;
68680;SDS011;55836;49.858;6.756;2023-08-06T06:14:22;4.20;;;1.50;;
68680;SDS011;55836;49.858;6.756;2023-08-06T06:16:48;2.47;;;1.67;;
68680;SDS011;55836;49.858;6.756;2023-08-06T06:19:14;3.63;;;1.90;;
68680;SDS011;55836;49.858;6.756;2023-08-06T06:21:40;2.07;;;1.33;;
68680;SDS011;55836;49.858;6.756;2023-08-06T06:24:06;2.63;;;1.57;;
68680;SDS011;55836;49.858;6.756;2023-08-06T06:26:33;1.73;;;1.30;;
68680;SDS011;55836;49.858;6.756;2023-08-06T06:28:59;2.70;;;1.40;;
68680;SDS011;55836;49.858;6.756;2023-08-06T06:31:25;3.70;;;1.50;;
68680;SDS011;55836;49.858;6.756;2023-08-06T06:33:51;2.20;;;1.80;;
68680;SDS011;55836;49.858;6.756;2023-08-06T06:36:19;2.13;;;1.47;;
68680;SDS011;55836;49.858;6.756;2023-08-06T06:38:45;2.13;;;1.47;;
68680;SDS011;55836;49.858;6.756;2023-08-06T06:41:11;1.83;;;1.30;;
68680;SDS011;55836;49.858;6.756;2023-08-06T06:43:37;1.50;;;1.40;;
68680;SDS011;55836;49.858;6.756;2023-08-06T06:46:04;2.30;;;1.43;;
68680;SDS011;55836;49.858;6.756;2023-08-06T06:48:31;2.53;;;1.20;;
68680;SDS011;55836;49.858;6.756;2023-08-06T06:50:57;2.47;;;1.33;;
68680;SDS011;55836;49.858;6.756;2023-08-06T06:53:23;2.00;;;1.10;;
68680;SDS011;55836;49.858;6.756;2023-08-06T06:55:55;1.10;;;1.00;;
68680;SDS011;55836;49.858;6.756;2023-08-06T06:58:21;5.40;;;1.40;;
68680;SDS011;55836;49.858;6.756;2023-08-06T07:00:48;1.40;;;1.30;;
68680;SDS011;55836;49.858;6.756;2023-08-06T07:03:14;1.87;;;1.10;;
68680;SDS011;55836;49.858;6.756;2023-08-06T07:05:40;1.83;;;1.00;;
68680;SDS011;55836;49.858;6.756;2023-08-06T07:08:06;2.50;;;1.00;;
68680;SDS011;55836;49.858;6.756;2023-08-06T07:10:32;1.00;;;0.90;;
68680;SDS011;55836;49.858;6.756;2023-08-06T07:12:58;4.00;;;1.30;;
68680;SDS011;55836;49.858;6.756;2023-08-06T07:15:25;1.30;;;1.00;;
68680;SDS011;55836;49.858;6.756;2023-08-06T07:17:51;1.47;;;0.90;;
68680;SDS011;55836;49.858;6.756;2023-08-06T07:20:17;1.23;;;0.87;;
68680;SDS011;55836;49.858;6.756;2023-08-06T07:22:43;1.43;;;0.90;;
68680;SDS011;55836;49.858;6.756;2023-08-06T07:25:09;1.03;;;0.90;;
68680;SDS011;55836;49.858;6.756;2023-08-06T07:27:35;1.47;;;0.90;;
68680;SDS011;55836;49.858;6.756;2023-08-06T07:30:02;3.00;;;1.07;;
68680;SDS011;55836;49.858;6.756;2023-08-06T07:32:28;1.50;;;0.90;;
68680;SDS011;55836;49.858;6.756;2023-08-06T07:34:54;1.27;;;0.73;;
68680;SDS011;55836;49.858;6.756;2023-08-06T07:37:24;0.80;;;0.80;;
68680;SDS011;55836;49.858;6.756;2023-08-06T07:39:53;1.67;;;0.83;;
68680;SDS011;55836;49.858;6.756;2023-08-06T07:42:19;0.63;;;0.63;;
68680;SDS011;55836;49.858;6.756;2023-08-06T07:44:50;1.00;;;1.00;;
68680;SDS011;55836;49.858;6.756;2023-08-06T07:47:16;0.70;;;0.70;;
68680;SDS011;55836;49.858;6.756;2023-08-06T07:49:42;3.60;;;0.97;;
68680;SDS011;55836;49.858;6.756;2023-08-06T07:52:08;0.70;;;0.70;;
68680;SDS011;55836;49.858;6.756;2023-08-06T07:54:34;0.83;;;0.50;;
68680;SDS011;55836;49.858;6.756;2023-08-06T07:57:00;1.27;;;0.70;;
68680;SDS011;55836;49.858;6.756;2023-08-06T07:59:26;0.40;;;0.40;;
68680;SDS011;55836;49.858;6.756;2023-08-06T08:01:52;0.70;;;0.50;;
68680;SDS011;55836;49.858;6.756;2023-08-06T08:04:18;0.47;;;0.47;;
68680;SDS011;55836;49.858;6.756;2023-08-06T08:06:44;0.50;;;0.50;;
68680;SDS011;55836;49.858;6.756;2023-08-06T08:09:10;1.23;;;0.60;;
68680;SDS011;55836;49.858;6.756;2023-08-06T08:11:36;0.70;;;0.50;;
68680;SDS011;55836;49.858;6.756;2023-08-06T08:14:02;0.50;;;0.50;;
68680;SDS011;55836;49.858;6.756;2023-08-06T08:16:31;1.00;;;0.60;;
68680;SDS011;55836;49.858;6.756;2023-08-06T08:18:57;0.80;;;0.70;;
68680;SDS011;55836;49.858;6.756;2023-08-06T08:21:23;0.63;;;0.50;;
68680;SDS011;55836;49.858;6.756;2023-08-06T08:23:49;1.83;;;0.60;;
68680;SDS011;55836;49.858;6.756;2023-08-06T08:26:18;0.50;;;0.50;;
68680;SDS011;55836;49.858;6.756;2023-08-06T08:28:44;1.87;;;0.60;;
68680;SDS011;55836;49.858;6.756;2023-08-06T08:31:11;0.63;;;0.63;;
68680;SDS011;55836;49.858;6.756;2023-08-06T08:33:37;0.50;;;0.50;;
68680;SDS011;55836;49.858;6.756;2023-08-06T08:36:03;0.70;;;0.70;;
68680;SDS011;55836;49.858;6.756;2023-08-06T08:38:30;0.53;;;0.53;;
68680;SDS011;55836;49.858;6.756;2023-08-06T08:40:56;0.70;;;0.70;;
68680;SDS011;55836;49.858;6.756;2023-08-06T08:43:25;0.73;;;0.60;;
68680;SDS011;55836;49.858;6.756;2023-08-06T08:45:52;0.53;;;0.53;;
68680;SDS011;55836;49.858;6.756;2023-08-06T08:48:23;0.77;;;0.77;;
68680;SDS011;55836;49.858;6.756;2023-08-06T08:50:50;1.47;;;0.70;;
68680;SDS011;55836;49.858;6.756;2023-08-06T08:53:17;0.70;;;0.70;;
68680;SDS011;55836;49.858;6.756;2023-08-06T08:55:47;1.63;;;0.80;;
68680;SDS011;55836;49.858;6.756;2023-08-06T08:58:14;0.97;;;0.77;;
68680;SDS011;55836;49.858;6.756;2023-08-06T09:00:43;0.70;;;0.70;;
68680;SDS011;55836;49.858;6.756;2023-08-06T09:03:11;1.10;;;0.80;;
68680;SDS011;55836;49.858;6.756;2023-08-06T09:05:37;0.80;;;0.80;;
68680;SDS011;55836;49.858;6.756;2023-08-06T09:08:05;0.70;;;0.70;;
68680;SDS011;55836;49.858;6.756;2023-08-06T09:10:32;0.80;;;0.70;;
68680;SDS011;55836;49.858;6.756;2023-08-06T09:12:58;0.73;;;0.73;;
68680;SDS011;55836;49.858;6.756;2023-08-06T09:15:26;0.80;;;0.80;;
68680;SDS011;55836;49.858;6.756;2023-08-06T09:17:52;0.70;;;0.70;;
68680;SDS011;55836;49.858;6.756;2023-08-06T09:20:19;0.83;;;0.83;;
68680;SDS011;55836;49.858;6.756;2023-08-06T09:22:47;1.10;;;0.80;;
68680;SDS011;55836;49.858;6.756;2023-08-06T09:25:20;0.70;;;0.70;;
68680;SDS011;55836;49.858;6.756;2023-08-06T09:27:48;0.63;;;0.63;;
68680;SDS011;55836;49.858;6.756;2023-08-06T09:30:28;2.07;;;0.90;;
68680;SDS011;55836;49.858;6.756;2023-08-06T09:32:55;1.50;;;0.70;;
68680;SDS011;55836;49.858;6.756;2023-08-06T09:35:21;0.70;;;0.70;;
68680;SDS011;55836;49.858;6.756;2023-08-06T09:37:47;0.60;;;0.60;;
68680;SDS011;55836;49.858;6.756;2023-08-06T09:40:31;0.73;;;0.73;;
68680;SDS011;55836;49.858;6.756;2023-08-06T09:42:58;3.13;;;0.90;;
68680;SDS011;55836;49.858;6.756;2023-08-06T09:45:36;1.17;;;0.90;;
68680;SDS011;55836;49.858;6.756;2023-08-06T09:48:03;1.03;;;0.80;;
68680;SDS011;55836;49.858;6.756;2023-08-06T09:50:31;0.90;;;0.90;;
68680;SDS011;55836;49.858;6.756;2023-08-06T09:52:58;0.97;;;0.80;;
68680;SDS011;55836;49.858;6.756;2023-08-06T09:55:24;2.00;;;1.27;;
68680;SDS011;55836;49.858;6.756;2023-08-06T09:57:51;3.03;;;1.30;;
68680;SDS011;55836;49.858;6.756;2023-08-06T10:00:17;1.20;;;1.00;;
68680;SDS011;55836;49.858;6.756;2023-08-06T10:02:44;3.00;;;1.23;;
68680;SDS011;55836;49.858;6.756;2023-08-06T10:05:11;1.70;;;1.40;;
68680;SDS011;55836;49.858;6.756;2023-08-06T10:07:37;2.00;;;1.30;;
68680;SDS011;55836;49.858;6.756;2023-08-06T10:10:06;2.07;;;1.53;;
68680;SDS011;55836;49.858;6.756;2023-08-06T10:12:34;2.87;;;1.30;;
68680;SDS011;55836;49.858;6.756;2023-08-06T10:15:01;2.13;;;1.30;;
68680;SDS011;55836;49.858;6.756;2023-08-06T10:17:28;2.30;;;1.30;;
68680;SDS011;55836;49.858;6.756;2023-08-06T10:19:56;1.93;;;1.40;;
68680;SDS011;55836;49.858;6.756;2023-08-06T10:22:23;1.33;;;1.23;;
68680;SDS011;55836;49.858;6.756;2023-08-06T10:24:59;1.70;;;1.23;;
68680;SDS011;55836;49.858;6.756;2023-08-06T10:27:33;1.83;;;1.30;;
68680;SDS011;55836;49.858;6.756;2023-08-06T10:32:47;2.47;;;1.47;;
68680;SDS011;55836;49.858;6.756;2023-08-06T10:37:58;2.20;;;1.50;;
68680;SDS011;55836;49.858;6.756;2023-08-06T10:40:25;1.93;;;1.20;;
68680;SDS011;55836;49.858;6.756;2023-08-06T10:42:51;2.17;;;1.30;;
68680;SDS011;55836;49.858;6.756;2023-08-06T10:45:18;3.43;;;1.40;;
68680;SDS011;55836;49.858;6.756;2023-08-06T10:47:45;1.43;;;1.20;;
68680;SDS011;55836;49.858;6.756;2023-08-06T10:50:17;1.80;;;1.40;;
68680;SDS011;55836;49.858;6.756;2023-08-06T10:52:44;1.53;;;1.20;;
68680;SDS011;55836;49.858;6.756;2023-08-06T10:55:10;5.70;;;1.43;;
68680;SDS011;55836;49.858;6.756;2023-08-06T10:57:36;2.63;;;1.50;;
68680;SDS011;55836;49.858;6.756;2023-08-06T11:00:06;1.57;;;1.20;;
68680;SDS011;55836;49.858;6.756;2023-08-06T11:02:33;1.73;;;1.20;;
68680;SDS011;55836;49.858;6.756;2023-08-06T11:05:07;2.43;;;1.30;;
68680;SDS011;55836;49.858;6.756;2023-08-06T11:07:33;1.63;;;1.30;;
68680;SDS011;55836;49.858;6.756;2023-08-06T11:10:06;2.43;;;2.23;;
68680;SDS011;55836;49.858;6.756;2023-08-06T11:12:33;2.20;;;1.17;;
68680;SDS011;55836;49.858;6.756;2023-08-06T11:14:59;1.33;;;1.10;;
68680;SDS011;55836;49.858;6.756;2023-08-06T11:17:28;1.77;;;1.10;;
68680;SDS011;55836;49.858;6.756;2023-08-06T11:19:55;2.67;;;1.20;;
68680;SDS011;55836;49.858;6.756;2023-08-06T11:22:21;2.80;;;1.20;;
68680;SDS011;55836;49.858;6.756;2023-08-06T11:24:50;1.90;;;1.10;;
68680;SDS011;55836;49.858;6.756;2023-08-06T11:27:16;2.20;;;1.07;;
68680;SDS011;55836;49.858;6.756;2023-08-06T11:29:43;2.97;;;1.07;;
68680;SDS011;55836;49.858;6.756;2023-08-06T11:32:09;3.33;;;1.17;;
68680;SDS011;55836;49.858;6.756;2023-08-06T11:34:36;2.30;;;1.30;;
68680;SDS011;55836;49.858;6.756;2023-08-06T11:37:03;1.77;;;1.17;;
68680;SDS011;55836;49.858;6.756;2023-08-06T11:39:32;4.57;;;1.10;;
68680;SDS011;55836;49.858;6.756;2023-08-06T11:41:59;2.30;;;1.23;;
68680;SDS011;55836;49.858;6.756;2023-08-06T11:44:31;2.30;;;1.00;;
68680;SDS011;55836;49.858;6.756;2023-08-06T11:46:58;1.97;;;1.20;;
68680;SDS011;55836;49.858;6.756;2023-08-06T11:49:39;3.13;;;1.00;;
68680;SDS011;55836;49.858;6.756;2023-08-06T11:52:08;3.50;;;1.27;;
68680;SDS011;55836;49.858;6.756;2023-08-06T11:54:34;1.73;;;1.10;;
68680;SDS011;55836;49.858;6.756;2023-08-06T11:57:02;1.80;;;1.13;;
68680;SDS011;55836;49.858;6.756;2023-08-06T11:59:31;2.63;;;1.10;;
68680;SDS011;55836;49.858;6.756;2023-08-06T12:01:57;1.27;;;1.13;;
68680;SDS011;55836;49.858;6.756;2023-08-06T12:04:23;1.80;;;1.20;;
68680;SDS011;55836;49.858;6.756;2023-08-06T12:06:49;1.83;;;1.00;;
68680;SDS011;55836;49.858;6.756;2023-08-06T12:09:15;2.50;;;1.00;;
68680;SDS011;55836;49.858;6.756;2023-08-06T12:11:41;1.83;;;0.93;;
68680;SDS011;55836;49.858;6.756;2023-08-06T12:14:07;2.53;;;1.03;;
68680;SDS011;55836;49.858;6.756;2023-08-06T12:16:33;1.73;;;0.90;;
68680;SDS011;55836;49.858;6.756;2023-08-06T12:19:01;1.00;;;0.90;;
68680;SDS011;55836;49.858;6.756;2023-08-06T12:21:27;1.57;;;0.90;;
68680;SDS011;55836;49.858;6.756;2023-08-06T12:23:53;1.37;;;0.90;;
68680;SDS011;55836;49.858;6.756;2023-08-06T12:26:19;1.13;;;0.87;;
68680;SDS011;55836;49.858;6.756;2023-08-06T12:28:45;0.80;;;0.70;;
68680;SDS011;55836;49.858;6.756;2023-08-06T12:31:11;0.80;;;0.80;;
68680;SDS011;55836;49.858;6.756;2023-08-06T12:33:37;2.30;;;0.90;;
68680;SDS011;55836;49.858;6.756;2023-08-06T12:36:03;1.03;;;0.83;;
68680;SDS011;55836;49.858;6.756;2023-08-06T12:38:29;1.93;;;0.90;;
68680;SDS011;55836;49.858;6.756;2023-08-06T12:40:58;1.07;;;0.80;;
68680;SDS011;55836;49.858;6.756;2023-08-06T12:43:24;0.93;;;0.80;;
68680;SDS011;55836;49.858;6.756;2023-08-06T12:45:50;2.13;;;0.80;;
68680;SDS011;55836;49.858;6.756;2023-08-06T12:48:16;0.70;;;0.70;;
68680;SDS011;55836;49.858;6.756;2023-08-06T12:50:44;1.63;;;0.83;;
68680;SDS011;55836;49.858;6.756;2023-08-06T12:53:10;2.47;;;1.20;;
68680;SDS011;55836;49.858;6.756;2023-08-06T12:55:36;0.90;;;0.70;;
68680;SDS011;55836;49.858;6.756;2023-08-06T12:58:02;2.00;;;0.70;;
68680;SDS011;55836;49.858;6.756;2023-08-06T13:00:28;4.13;;;0.97;;
68680;SDS011;55836;49.858;6.756;2023-08-06T13:02:54;0.70;;;0.60;;
68680;SDS011;55836;49.858;6.756;2023-08-06T13:05:20;2.70;;;1.20;;
68680;SDS011;55836;49.858;6.756;2023-08-06T13:07:46;0.93;;;0.80;;
68680;SDS011;55836;49.858;6.756;2023-08-06T13:10:12;1.33;;;0.70;;
68680;SDS011;55836;49.858;6.756;2023-08-06T13:12:38;1.57;;;0.70;;
68680;SDS011;55836;49.858;6.756;2023-08-06T13:15:04;0.80;;;0.80;;
68680;SDS011;55836;49.858;6.756;2023-08-06T13:17:31;0.70;;;0.70;;
68680;SDS011;55836;49.858;6.756;2023-08-06T13:19:57;1.10;;;0.70;;
68680;SDS011;55836;49.858;6.756;2023-08-06T13:22:23;1.67;;;0.80;;
68680;SDS011;55836;49.858;6.756;2023-08-06T13:24:51;1.07;;;0.57;;
68680;SDS011;55836;49.858;6.756;2023-08-06T13:27:17;1.17;;;0.70;;
68680;SDS011;55836;49.858;6.756;2023-08-06T13:29:43;0.80;;;0.80;;
68680;SDS011;55836;49.858;6.756;2023-08-06T13:32:09;2.13;;;0.80;;
68680;SDS011;55836;49.858;6.756;2023-08-06T13:34:35;0.83;;;0.83;;
68680;SDS011;55836;49.858;6.756;2023-08-06T13:37:01;1.33;;;1.00;;
68680;SDS011;55836;49.858;6.756;2023-08-06T13:39:28;1.00;;;0.87;;
68680;SDS011;55836;49.858;6.756;2023-08-06T13:41:53;1.90;;;0.90;;
68680;SDS011;55836;49.858;6.756;2023-08-06T13:44:20;1.57;;;0.70;;
68680;SDS011;55836;49.858;6.756;2023-08-06T13:46:46;1.00;;;0.90;;
68680;SDS011;55836;49.858;6.756;2023-08-06T13:49:12;1.53;;;1.43;;
68680;SDS011;55836;49.858;6.756;2023-08-06T13:51:38;2.47;;;1.40;;
68680;SDS011;55836;49.858;6.756;2023-08-06T13:54:04;1.40;;;1.30;;
68680;SDS011;55836;49.858;6.756;2023-08-06T13:56:31;2.13;;;0.93;;
68680;SDS011;55836;49.858;6.756;2023-08-06T13:58:57;2.70;;;1.13;;
68680;SDS011;55836;49.858;6.756;2023-08-06T14:01:23;0.90;;;0.80;;
68680;SDS011;55836;49.858;6.756;2023-08-06T14:03:49;1.07;;;0.80;;
68680;SDS011;55836;49.858;6.756;2023-08-06T14:06:15;1.67;;;0.90;;
68680;SDS011;55836;49.858;6.756;2023-08-06T14:08:41;1.57;;;1.23;;
68680;SDS011;55836;49.858;6.756;2023-08-06T14:11:07;1.20;;;1.00;;
68680;SDS011;55836;49.858;6.756;2023-08-06T14:13:35;1.17;;;1.07;;
68680;SDS011;55836;49.858;6.756;2023-08-06T14:16:01;2.03;;;1.00;;
68680;SDS011;55836;49.858;6.756;2023-08-06T14:18:27;1.20;;;0.90;;
68680;SDS011;55836;49.858;6.756;2023-08-06T14:20:53;1.83;;;1.00;;
68680;SDS011;55836;49.858;6.756;2023-08-06T14:23:19;2.13;;;1.10;;
68680;SDS011;55836;49.858;6.756;2023-08-06T14:25:45;2.07;;;1.33;;
68680;SDS011;55836;49.858;6.756;2023-08-06T14:28:11;3.27;;;1.37;;
68680;SDS011;55836;49.858;6.756;2023-08-06T14:30:37;1.17;;;0.90;;
68680;SDS011;55836;49.858;6.756;2023-08-06T14:33:06;1.33;;;1.10;;
68680;SDS011;55836;49.858;6.756;2023-08-06T14:35:32;2.80;;;1.27;;
68680;SDS011;55836;49.858;6.756;2023-08-06T14:37:58;3.47;;;1.33;;
68680;SDS011;55836;49.858;6.756;2023-08-06T14:40:24;2.57;;;1.00;;
68680;SDS011;55836;49.858;6.756;2023-08-06T14:42:53;1.30;;;1.03;;
68680;SDS011;55836;49.858;6.756;2023-08-06T14:45:19;1.73;;;1.20;;
68680;SDS011;55836;49.858;6.756;2023-08-06T14:47:45;2.13;;;1.40;;
68680;SDS011;55836;49.858;6.756;2023-08-06T14:50:11;3.03;;;1.77;;
68680;SDS011;55836;49.858;6.756;2023-08-06T14:52:37;6.43;;;1.73;;